createdAt,value
2022-08-24T00:01:33.311Z,99.90
2022-08-24T00:06:31.100Z,99.90
2022-08-24T00:11:28.657Z,99.90
2022-08-24T00:16:26.249Z,99.90
2022-08-24T00:21:23.864Z,99.90
2022-08-24T00:26:28.642Z,99.90
2022-08-24T00:31:27.182Z,99.90
2022-08-24T00:36:25.129Z,99.90
2022-08-24T00:41:22.864Z,99.90
2022-08-24T00:46:45.209Z,99.90
2022-08-24T00:51:52.396Z,99.90
2022-08-24T00:57:02.235Z,99.90
2022-08-24T01:02:09.029Z,99.90
2022-08-24T01:07:13.426Z,99.90
2022-08-24T01:12:11.360Z,99.90
2022-08-24T01:17:27.788Z,99.90
2022-08-24T01:22:37.244Z,99.90
2022-08-24T01:27:36.891Z,99.90
2022-08-24T01:32:34.337Z,99.90
2022-08-24T01:37:33.219Z,99.90
2022-08-24T01:42:30.663Z,99.90
2022-08-24T01:47:29.433Z,99.90
2022-08-24T01:52:38.913Z,99.90
2022-08-24T01:57:45.519Z,99.90
2022-08-24T02:02:44.556Z,99.90
2022-08-24T02:07:41.982Z,99.90
2022-08-24T02:12:41.790Z,99.90
2022-08-24T02:17:40.904Z,99.90
2022-08-24T02:22:41.114Z,99.90
2022-08-24T02:27:38.438Z,99.90
2022-08-24T02:32:35.793Z,99.90
2022-08-24T02:37:33.447Z,99.90
2022-08-24T02:42:32.972Z,99.90
2022-08-24T02:47:38.162Z,99.90
2022-08-24T02:52:38.288Z,99.90
2022-08-24T02:57:35.815Z,99.90
2022-08-24T03:02:36.525Z,99.90
2022-08-24T03:07:34.018Z,99.90
2022-08-24T03:12:31.877Z,99.90
2022-08-24T03:17:31.695Z,99.90
2022-08-24T03:22:29.087Z,99.90
2022-08-24T03:27:26.948Z,99.90
2022-08-24T03:32:24.368Z,99.90
2022-08-24T03:37:22.658Z,99.90
2022-08-24T03:42:20.923Z,99.90
2022-08-24T03:47:20.523Z,99.90
2022-08-24T03:52:19.797Z,99.90
2022-08-24T03:57:21.535Z,99.90
2022-08-24T04:02:19.932Z,99.90
2022-08-24T04:07:20.268Z,99.90
2022-08-24T04:12:17.699Z,99.90
2022-08-24T04:17:14.954Z,99.90
2022-08-24T04:22:12.229Z,99.90
2022-08-24T04:27:09.513Z,99.90
2022-08-24T04:32:07.900Z,99.90
2022-08-24T04:37:08.496Z,99.90
2022-08-24T04:42:09.135Z,99.90
2022-08-24T04:47:07.652Z,99.90
2022-08-24T04:52:05.756Z,99.90
2022-08-24T04:57:03.061Z,99.90
2022-08-24T05:02:00.400Z,99.90
2022-08-24T05:06:57.728Z,99.90
2022-08-24T05:11:55.929Z,99.90
2022-08-24T05:16:53.961Z,99.90
2022-08-24T05:21:51.549Z,99.90
2022-08-24T05:26:49.910Z,99.90
2022-08-24T05:31:47.764Z,99.90
2022-08-24T05:36:45.692Z,99.90
2022-08-24T05:41:45.349Z,99.90
2022-08-24T05:46:43.427Z,99.90
2022-08-24T05:51:42.973Z,99.90
2022-08-24T05:56:40.920Z,99.90
2022-08-24T06:01:42.174Z,99.90
2022-08-24T06:06:43.000Z,99.90
2022-08-24T06:11:41.393Z,99.90
2022-08-24T06:16:41.479Z,99.90
2022-08-24T06:21:39.940Z,99.90
2022-08-24T06:26:56.099Z,99.90
2022-08-24T06:31:54.200Z,99.90
2022-08-24T06:36:53.005Z,99.90
2022-08-24T06:41:51.159Z,99.90
2022-08-24T06:46:48.612Z,99.90
2022-08-24T06:51:50.419Z,99.90
2022-08-24T06:56:48.424Z,99.90
2022-08-24T07:01:46.047Z,99.90
2022-08-24T07:06:43.499Z,99.90
2022-08-24T07:11:41.520Z,99.90
2022-08-24T07:16:38.996Z,99.90
2022-08-24T07:21:36.345Z,99.90
2022-08-24T07:26:33.781Z,99.90
2022-08-24T07:31:35.925Z,99.90
2022-08-24T07:36:33.856Z,99.90
2022-08-24T07:41:51.484Z,99.90
2022-08-24T07:46:49.707Z,99.90
2022-08-24T07:51:48.713Z,99.90
2022-08-24T07:56:46.069Z,99.90
2022-08-24T08:01:43.537Z,99.90
2022-08-24T08:06:43.299Z,99.10
2022-08-24T08:11:40.635Z,97.20
2022-08-24T08:16:40.513Z,96.80
2022-08-24T08:22:04.497Z,95.60
2022-08-24T08:27:02.077Z,95.10
2022-08-24T08:32:00.977Z,93.90
2022-08-24T08:36:59.062Z,93.10
2022-08-24T08:42:53.288Z,91.90
2022-08-24T08:48:22.320Z,91.60
2022-08-24T08:53:49.812Z,93.40
2022-08-24T08:59:11.334Z,91.60
2022-08-24T09:04:27.751Z,92.10
2022-08-24T09:09:25.549Z,91.90
2022-08-24T09:14:29.592Z,90.90
2022-08-24T09:19:38.257Z,89.30
2022-08-24T09:24:52.477Z,90.70
2022-08-24T09:29:58.652Z,87.70
2022-08-24T09:35:09.749Z,87.80
2022-08-24T09:40:35.867Z,86.90
2022-08-24T09:46:00.371Z,85.60
2022-08-24T09:51:46.274Z,85.40
2022-08-24T09:57:12.373Z,88.80
2022-08-24T10:02:28.930Z,90.50
2022-08-24T10:07:41.810Z,91.80
2022-08-24T10:13:12.486Z,92.00
2022-08-24T10:18:43.611Z,91.30
2022-08-24T10:24:19.696Z,93.30
2022-08-24T10:29:31.391Z,93.70
2022-08-24T10:34:49.425Z,95.70
2022-08-24T10:40:25.399Z,96.60
2022-08-24T10:45:28.906Z,96.60
2022-08-24T10:50:40.986Z,97.50
2022-08-24T10:55:38.831Z,98.50
2022-08-24T11:00:36.957Z,98.10
2022-08-24T11:05:47.491Z,98.50
2022-08-24T11:10:44.917Z,99.20
2022-08-24T11:15:55.976Z,97.40
2022-08-24T11:20:56.041Z,96.80
2022-08-24T11:25:55.327Z,96.30
2022-08-24T11:30:52.651Z,95.70
2022-08-24T11:35:50.184Z,96.70
2022-08-24T11:41:29.230Z,97.20
2022-08-24T11:46:47.389Z,96.20
2022-08-24T11:52:09.300Z,98.00
2022-08-24T11:57:16.345Z,97.60
2022-08-24T12:02:37.007Z,98.20
2022-08-24T12:08:13.454Z,97.60
2022-08-24T12:13:35.633Z,97.50
2022-08-24T12:18:52.730Z,97.90
2022-08-24T12:23:57.887Z,97.90
2022-08-24T12:29:11.103Z,98.50
2022-08-24T12:34:15.294Z,97.40
2022-08-24T12:39:22.629Z,98.80
2022-08-24T12:44:25.503Z,98.20
2022-08-24T12:49:36.704Z,97.70
2022-08-24T12:55:12.657Z,98.30
2022-08-24T13:00:17.183Z,99.70
2022-08-24T13:05:18.881Z,99.30
2022-08-24T13:10:35.531Z,98.40
2022-08-24T13:15:32.775Z,98.40
2022-08-24T13:20:49.916Z,98.80
2022-08-24T13:25:59.919Z,99.30
2022-08-24T13:31:03.378Z,98.30
2022-08-24T13:36:09.219Z,98.60
2022-08-24T13:41:23.248Z,97.80
2022-08-24T13:46:46.664Z,98.40
2022-08-24T13:51:44.074Z,99.00
2022-08-24T13:57:03.784Z,98.90
2022-08-24T14:02:14.603Z,98.20
2022-08-24T14:07:22.302Z,97.50
2022-08-24T14:12:34.763Z,97.90
2022-08-24T14:17:55.311Z,98.10
2022-08-24T14:23:11.474Z,98.60
2022-08-24T14:28:32.015Z,98.90
2022-08-24T14:33:33.516Z,99.90
2022-08-24T14:38:55.095Z,99.90
2022-08-24T14:44:16.865Z,99.90
2022-08-24T14:49:41.781Z,99.90
2022-08-24T14:55:10.130Z,99.90
2022-08-24T15:00:21.739Z,99.90
2022-08-24T15:05:43.875Z,99.90
2022-08-24T15:11:09.460Z,99.90
2022-08-24T15:16:34.971Z,99.40
2022-08-24T15:22:00.435Z,98.80
2022-08-24T15:27:04.000Z,99.40
2022-08-24T15:32:12.550Z,99.90
2022-08-24T15:37:10.700Z,99.70
2022-08-24T15:42:13.627Z,99.90
2022-08-24T15:47:18.549Z,99.90
2022-08-24T15:52:47.442Z,99.90
2022-08-24T15:57:45.716Z,99.90
2022-08-24T16:02:43.821Z,99.90
2022-08-24T16:08:03.437Z,99.90
2022-08-24T16:13:17.710Z,99.90
2022-08-24T16:18:16.700Z,99.90
2022-08-24T16:23:27.434Z,99.90
2022-08-24T16:28:24.850Z,99.90
2022-08-24T16:33:44.193Z,99.90
2022-08-24T16:38:48.178Z,99.90
2022-08-24T16:43:46.384Z,99.90
2022-08-24T16:48:43.720Z,99.90
2022-08-24T16:53:41.061Z,99.90
2022-08-24T16:58:38.372Z,99.90
2022-08-24T17:03:35.832Z,99.90
2022-08-24T17:08:34.366Z,99.90
2022-08-24T17:13:48.989Z,99.90
2022-08-24T17:18:47.712Z,99.90
2022-08-24T17:23:45.623Z,99.90
2022-08-24T17:28:44.602Z,99.90
2022-08-24T17:33:42.563Z,99.90
2022-08-24T17:38:52.943Z,99.90
2022-08-24T17:43:53.292Z,99.90
2022-08-24T17:48:50.742Z,99.90
2022-08-24T17:53:48.102Z,99.90
2022-08-24T17:59:04.024Z,99.90
2022-08-24T18:04:01.404Z,99.90
2022-08-24T18:09:05.026Z,99.90
2022-08-24T18:14:02.682Z,99.90
2022-08-24T18:19:00.040Z,99.90
2022-08-24T18:23:58.442Z,99.90
2022-08-24T18:29:00.320Z,99.90
2022-08-24T18:33:59.413Z,99.90
2022-08-24T18:38:57.295Z,99.90
2022-08-24T18:43:54.908Z,99.90
2022-08-24T18:48:52.399Z,99.90
2022-08-24T18:53:49.931Z,99.90
2022-08-24T18:58:49.173Z,99.90
2022-08-24T19:03:46.824Z,99.90
2022-08-24T19:08:44.225Z,99.90
2022-08-24T19:13:41.873Z,99.90
2022-08-24T19:18:39.583Z,99.90
2022-08-24T19:23:37.823Z,99.90
2022-08-24T19:28:35.159Z,99.90
2022-08-24T19:33:37.292Z,99.90
2022-08-24T19:38:35.072Z,99.90
2022-08-24T19:43:32.783Z,99.90
2022-08-24T19:48:36.935Z,99.90
2022-08-24T19:53:36.925Z,99.90
2022-08-24T19:58:46.644Z,99.90
2022-08-24T20:03:44.063Z,99.90
2022-08-24T20:08:41.773Z,99.90
2022-08-24T20:13:39.514Z,99.90
2022-08-24T20:18:37.843Z,99.90
2022-08-24T20:23:35.376Z,99.90
2022-08-24T20:28:38.329Z,99.90
2022-08-24T20:33:35.954Z,99.90
2022-08-24T20:38:34.410Z,99.90
2022-08-24T20:43:31.767Z,99.90
2022-08-24T20:48:31.595Z,99.90
2022-08-24T20:53:29.140Z,99.90
2022-08-24T20:58:27.098Z,99.90
2022-08-24T21:03:24.404Z,99.90
2022-08-24T21:08:21.799Z,99.90
2022-08-24T21:13:19.357Z,99.90
2022-08-24T21:18:16.943Z,99.90
2022-08-24T21:23:14.606Z,99.90
2022-08-24T21:28:12.993Z,99.90
2022-08-24T21:33:29.928Z,99.90
2022-08-24T21:38:28.524Z,99.90
2022-08-24T21:43:44.670Z,99.90
2022-08-24T21:48:41.930Z,99.90
2022-08-24T21:53:39.275Z,99.90
2022-08-24T21:58:36.548Z,99.90
2022-08-24T22:03:40.059Z,99.90
2022-08-24T22:08:40.180Z,99.90
2022-08-24T22:13:38.649Z,99.90
2022-08-24T22:18:35.954Z,99.90
2022-08-24T22:23:33.294Z,99.90
2022-08-24T22:28:30.841Z,99.90
2022-08-24T22:33:29.798Z,99.90
2022-08-24T22:38:27.148Z,99.90
2022-08-24T22:43:44.368Z,99.90
2022-08-24T22:48:41.782Z,99.90
2022-08-24T22:53:40.664Z,99.90
2022-08-24T22:58:38.051Z,99.90
2022-08-24T23:03:35.403Z,99.90
2022-08-24T23:08:32.810Z,99.90
2022-08-24T23:13:30.280Z,99.90
2022-08-24T23:18:46.377Z,99.90
2022-08-24T23:23:43.782Z,99.90
2022-08-24T23:28:43.686Z,99.90
2022-08-24T23:33:41.581Z,99.90
2022-08-24T23:38:39.638Z,99.90
2022-08-24T23:43:38.035Z,99.90
2022-08-24T23:48:37.738Z,99.90
2022-08-24T23:53:36.484Z,99.90
